createdAt,value
2017-05-14T00:00:15.892Z,0.00
2017-05-14T00:01:15.857Z,0.00
2017-05-14T00:02:10.761Z,0.00
2017-05-14T00:03:10.331Z,0.00
2017-05-14T00:04:10.286Z,0.00
2017-05-14T00:05:10.251Z,0.00
2017-05-14T00:06:11.821Z,0.00
2017-05-14T00:07:10.690Z,0.00
2017-05-14T00:08:05.650Z,0.00
2017-05-14T00:09:05.192Z,0.00
2017-05-14T00:09:59.121Z,0.00
2017-05-14T00:10:54.604Z,0.00
2017-05-14T00:11:53.761Z,0.00
2017-05-14T00:12:53.591Z,0.00
2017-05-14T00:13:47.526Z,0.00
2017-05-14T00:14:42.507Z,0.00
2017-05-14T00:15:42.077Z,0.00
2017-05-14T00:16:36.961Z,0.00
2017-05-14T00:17:36.836Z,0.00
2017-05-14T00:18:30.384Z,0.00
2017-05-14T00:19:24.492Z,0.00
2017-05-14T00:20:24.346Z,0.00
2017-05-14T00:21:07.320Z,0.00
2017-05-14T00:21:54.823Z,0.00
2017-05-14T00:22:43.815Z,0.00
2017-05-14T00:23:31.338Z,0.00
2017-05-14T00:24:19.296Z,0.00
2017-05-14T00:25:02.632Z,0.00
2017-05-14T00:25:49.804Z,0.00
2017-05-14T00:26:32.748Z,0.00
2017-05-14T00:27:21.255Z,0.00
2017-05-14T00:28:08.861Z,0.00
2017-05-14T00:28:51.836Z,0.00
2017-05-14T00:29:39.272Z,0.00
2017-05-14T00:30:22.268Z,0.00
2017-05-14T00:31:09.742Z,0.00
2017-05-14T00:31:58.732Z,0.00
2017-05-14T00:32:46.308Z,0.00
2017-05-14T00:33:29.256Z,0.00
2017-05-14T00:34:16.835Z,0.00
2017-05-14T00:35:04.735Z,0.00
2017-05-14T00:35:53.181Z,0.00
2017-05-14T00:36:41.667Z,0.00
2017-05-14T00:37:29.162Z,0.00
2017-05-14T00:38:12.550Z,0.00
2017-05-14T00:38:59.678Z,0.00
2017-05-14T00:39:43.067Z,0.00
2017-05-14T00:40:30.199Z,0.00
2017-05-14T00:41:18.142Z,0.00
2017-05-14T00:42:06.139Z,0.00
2017-05-14T00:42:49.100Z,0.00
2017-05-14T00:43:36.617Z,0.00
2017-05-14T00:44:19.792Z,0.00
2017-05-14T00:45:07.158Z,0.00
2017-05-14T00:45:56.226Z,0.00
2017-05-14T00:46:44.218Z,0.00
2017-05-14T00:47:31.565Z,0.00
2017-05-14T00:48:19.532Z,0.00
2017-05-14T00:49:02.490Z,0.00
2017-05-14T00:49:50.069Z,0.00
2017-05-14T00:50:33.378Z,0.00
2017-05-14T00:51:20.506Z,0.00
2017-05-14T00:52:09.499Z,0.00
2017-05-14T00:52:57.542Z,0.00
2017-05-14T00:53:45.051Z,0.00
2017-05-14T00:54:32.895Z,0.00
2017-05-14T00:55:15.911Z,0.00
2017-05-14T00:56:03.419Z,0.00
2017-05-14T00:56:46.394Z,0.00
2017-05-14T00:57:33.872Z,0.00
2017-05-14T00:58:22.857Z,0.00
2017-05-14T00:59:17.367Z,0.00
2017-05-14T01:00:11.895Z,0.00
2017-05-14T01:01:06.481Z,0.00
2017-05-14T01:02:06.019Z,0.00
2017-05-14T01:02:59.908Z,0.00
2017-05-14T01:03:59.908Z,0.00
2017-05-14T01:04:55.490Z,0.00
2017-05-14T01:05:54.978Z,0.00
2017-05-14T01:06:49.341Z,0.00
2017-05-14T01:07:43.870Z,0.00
2017-05-14T01:08:43.396Z,0.00
2017-05-14T01:09:43.321Z,0.00
2017-05-14T01:10:37.251Z,0.00
2017-05-14T01:11:37.179Z,0.00
2017-05-14T01:12:31.173Z,0.00
2017-05-14T01:13:31.106Z,0.00
2017-05-14T01:14:31.077Z,0.00
2017-05-14T01:15:25.089Z,0.00
2017-05-14T01:16:25.001Z,0.00
2017-05-14T01:17:13.968Z,0.00
2017-05-14T01:18:08.588Z,0.00
2017-05-14T01:19:07.992Z,0.00
2017-05-14T01:20:07.944Z,0.00
2017-05-14T01:21:01.884Z,0.00
2017-05-14T01:21:55.903Z,0.00
2017-05-14T01:22:55.815Z,0.00
2017-05-14T01:23:55.813Z,0.00
2017-05-14T01:24:56.332Z,0.00
2017-05-14T01:25:49.703Z,0.00
2017-05-14T01:26:44.673Z,0.00
2017-05-14T01:27:44.157Z,0.00
2017-05-14T01:28:33.086Z,0.00
2017-05-14T01:29:38.579Z,0.00
2017-05-14T01:30:33.791Z,0.00
2017-05-14T01:31:28.112Z,0.00
2017-05-14T01:32:22.602Z,0.00
2017-05-14T01:33:22.165Z,0.00
2017-05-14T01:34:17.115Z,0.00
2017-05-14T01:35:17.481Z,0.00
2017-05-14T01:36:16.554Z,0.00
2017-05-14T01:37:11.504Z,0.00
2017-05-14T01:38:17.082Z,0.00
2017-05-14T01:39:10.978Z,0.00
2017-05-14T01:40:05.996Z,0.00
2017-05-14T01:41:05.497Z,0.00
2017-05-14T01:41:54.468Z,0.00
2017-05-14T01:42:53.968Z,0.00
2017-05-14T01:43:47.867Z,0.00
2017-05-14T01:44:42.880Z,0.00
2017-05-14T01:45:36.365Z,0.00
2017-05-14T01:46:36.382Z,0.00
2017-05-14T01:47:30.276Z,0.00
2017-05-14T01:48:30.296Z,0.00
2017-05-14T01:49:25.206Z,0.00
2017-05-14T01:50:20.030Z,0.00
2017-05-14T01:51:19.293Z,0.00
2017-05-14T01:52:13.253Z,0.00
2017-05-14T01:53:14.190Z,0.00
2017-05-14T01:54:13.730Z,0.00
2017-05-14T01:55:07.633Z,0.00
2017-05-14T01:56:07.582Z,0.00
2017-05-14T01:57:01.575Z,0.00
2017-05-14T01:57:55.527Z,0.00
2017-05-14T01:58:50.444Z,0.00
2017-05-14T01:59:50.033Z,0.00
2017-05-14T02:00:38.974Z,0.00
2017-05-14T02:01:44.498Z,0.00
2017-05-14T02:02:38.406Z,0.00
2017-05-14T02:03:33.353Z,0.00
2017-05-14T02:04:32.946Z,0.00
2017-05-14T02:05:21.849Z,0.00
2017-05-14T02:06:21.438Z,0.00
2017-05-14T02:07:15.299Z,0.00
2017-05-14T02:08:15.281Z,0.00
2017-05-14T02:09:10.258Z,0.00
2017-05-14T02:10:09.722Z,0.00
2017-05-14T02:11:09.721Z,0.00
2017-05-14T02:12:03.611Z,0.00
2017-05-14T02:13:03.626Z,0.00
2017-05-14T02:13:58.560Z,0.00
2017-05-14T02:14:58.098Z,0.00
2017-05-14T02:15:53.061Z,0.00
2017-05-14T02:16:52.900Z,0.00
2017-05-14T02:17:52.493Z,0.00
2017-05-14T02:18:46.496Z,0.00
2017-05-14T02:19:40.483Z,0.00
2017-05-14T02:20:34.404Z,0.00
2017-05-14T02:21:23.360Z,0.00
2017-05-14T02:22:17.884Z,0.00
2017-05-14T02:23:17.385Z,0.00
2017-05-14T02:24:17.319Z,0.00
2017-05-14T02:25:12.305Z,0.00
2017-05-14T02:26:11.864Z,0.00
2017-05-14T02:27:00.783Z,0.00
2017-05-14T02:28:00.350Z,0.00
2017-05-14T02:29:00.194Z,0.00
2017-05-14T02:29:55.188Z,0.00
2017-05-14T02:31:00.708Z,0.00
2017-05-14T02:31:54.686Z,0.00
2017-05-14T02:33:00.604Z,0.00
2017-05-14T02:34:00.575Z,0.00
2017-05-14T02:35:00.496Z,0.00
2017-05-14T02:36:00.463Z,0.00
2017-05-14T02:36:54.922Z,0.00
2017-05-14T02:37:43.399Z,0.00
2017-05-14T02:38:37.894Z,0.00
2017-05-14T02:39:37.470Z,0.00
2017-05-14T02:40:31.382Z,0.00
2017-05-14T02:41:25.325Z,0.00
2017-05-14T02:42:19.276Z,0.00
2017-05-14T02:43:14.249Z,0.00
2017-05-14T02:44:13.774Z,0.00
2017-05-14T02:45:02.673Z,0.00
2017-05-14T02:46:08.178Z,0.00
2017-05-14T02:47:03.189Z,0.00
2017-05-14T02:47:57.700Z,0.00
2017-05-14T02:48:52.802Z,0.00
2017-05-14T02:49:51.847Z,0.00
2017-05-14T02:50:46.727Z,0.00
2017-05-14T02:51:46.285Z,0.00
2017-05-14T02:52:46.158Z,0.00
2017-05-14T02:53:40.133Z,0.00
2017-05-14T02:54:40.062Z,0.00
2017-05-14T02:55:35.035Z,0.00
2017-05-14T02:56:34.512Z,0.00
2017-05-14T02:57:28.500Z,0.00
2017-05-14T02:58:29.417Z,0.00
2017-05-14T02:59:29.042Z,0.00
2017-05-14T03:00:28.970Z,0.00
2017-05-14T03:01:28.995Z,0.00
2017-05-14T03:02:22.790Z,0.00
2017-05-14T03:03:22.744Z,0.00
2017-05-14T03:04:17.711Z,0.00
2017-05-14T03:05:17.222Z,0.00
2017-05-14T03:06:12.231Z,0.00
2017-05-14T03:07:11.772Z,0.00
2017-05-14T03:08:11.653Z,0.00
2017-05-14T03:09:06.626Z,0.00
2017-05-14T03:10:06.150Z,0.00
2017-05-14T03:11:00.107Z,0.00
2017-05-14T03:11:55.047Z,0.00
2017-05-14T03:12:54.732Z,0.00
2017-05-14T03:13:54.545Z,0.00
2017-05-14T03:14:54.509Z,0.00
2017-05-14T03:15:49.379Z,0.00
2017-05-14T03:16:48.962Z,0.00
2017-05-14T03:17:42.909Z,0.00
2017-05-14T03:18:37.898Z,0.00
2017-05-14T03:19:37.358Z,0.00
2017-05-14T03:20:32.988Z,0.00
2017-05-14T03:21:37.862Z,0.00
2017-05-14T03:22:31.843Z,0.00
2017-05-14T03:23:31.751Z,0.00
2017-05-14T03:24:20.746Z,0.00
2017-05-14T03:25:15.183Z,0.00
2017-05-14T03:26:14.774Z,0.00
2017-05-14T03:27:14.647Z,0.00
2017-05-14T03:28:08.650Z,0.00
2017-05-14T03:29:02.595Z,0.00
2017-05-14T03:30:02.602Z,0.00
2017-05-14T03:30:56.501Z,0.00
2017-05-14T03:31:56.495Z,0.00
2017-05-14T03:32:56.398Z,0.00
2017-05-14T03:33:51.383Z,0.00
2017-05-14T03:34:56.878Z,0.00
2017-05-14T03:35:50.927Z,0.00
2017-05-14T03:36:45.810Z,0.00
2017-05-14T03:37:40.306Z,0.00
2017-05-14T03:38:34.839Z,0.00
2017-05-14T03:39:29.358Z,0.00
2017-05-14T03:40:29.915Z,0.01
2017-05-14T03:41:24.390Z,0.01
2017-05-14T03:42:18.878Z,0.01
2017-05-14T03:43:13.432Z,0.01
2017-05-14T03:44:12.962Z,0.01
2017-05-14T03:45:06.894Z,0.01
2017-05-14T03:46:06.841Z,0.01
2017-05-14T03:47:06.844Z,0.01
2017-05-14T03:48:07.735Z,0.01
2017-05-14T03:49:08.287Z,0.01
2017-05-14T03:50:02.813Z,0.01
2017-05-14T03:51:02.338Z,0.01
2017-05-14T03:52:03.207Z,0.01
2017-05-14T03:52:56.941Z,0.01
2017-05-14T03:53:56.777Z,0.02
2017-05-14T03:54:50.681Z,0.02
2017-05-14T03:55:51.629Z,0.02
2017-05-14T03:56:51.771Z,0.02
2017-05-14T03:57:45.129Z,0.02
2017-05-14T03:58:39.131Z,0.02
2017-05-14T03:59:33.030Z,0.02
2017-05-14T04:00:21.974Z,0.02
2017-05-14T04:01:16.502Z,0.02
2017-05-14T04:02:16.008Z,0.02
2017-05-14T04:03:09.987Z,0.02
2017-05-14T04:04:03.879Z,0.02
2017-05-14T04:04:57.880Z,0.02
2017-05-14T04:05:57.810Z,0.02
2017-05-14T04:06:51.827Z,0.03
2017-05-14T04:07:51.806Z,0.03
2017-05-14T04:08:46.669Z,0.03
2017-05-14T04:09:41.266Z,0.03
2017-05-14T04:10:40.682Z,0.03
2017-05-14T04:11:40.739Z,0.03
2017-05-14T04:12:34.619Z,0.03
2017-05-14T04:13:34.614Z,0.03
2017-05-14T04:14:29.528Z,0.03
2017-05-14T04:15:29.049Z,0.03
2017-05-14T04:16:23.989Z,0.04
2017-05-14T04:17:23.507Z,0.04
2017-05-14T04:18:24.494Z,0.04
2017-05-14T04:19:18.994Z,0.04
2017-05-14T04:20:13.467Z,0.04
2017-05-14T04:21:08.253Z,0.04
2017-05-14T04:22:08.566Z,0.04
2017-05-14T04:23:03.076Z,0.04
2017-05-14T04:23:57.589Z,0.04
2017-05-14T04:24:52.470Z,0.04
2017-05-14T04:25:51.599Z,0.05
2017-05-14T04:26:46.711Z,0.05
2017-05-14T04:27:46.089Z,0.05
2017-05-14T04:28:46.062Z,0.05
2017-05-14T04:29:40.952Z,0.05
2017-05-14T04:30:40.498Z,0.05
2017-05-14T04:31:29.484Z,0.06
2017-05-14T04:32:28.948Z,0.06
2017-05-14T04:33:22.953Z,0.06
2017-05-14T04:34:16.913Z,0.06
2017-05-14T04:35:10.891Z,0.06
2017-05-14T04:36:06.388Z,0.06
2017-05-14T04:37:05.321Z,0.06
2017-05-14T04:37:59.311Z,0.06
2017-05-14T04:38:53.202Z,0.07
2017-05-14T04:39:48.213Z,0.07
2017-05-14T04:40:47.701Z,0.07
2017-05-14T04:41:41.659Z,0.08
2017-05-14T04:42:41.664Z,0.08
2017-05-14T04:43:35.645Z,0.08
2017-05-14T04:44:41.520Z,0.08
2017-05-14T04:45:36.530Z,0.09
2017-05-14T04:46:35.992Z,0.09
2017-05-14T04:47:36.011Z,0.09
2017-05-14T04:48:29.916Z,0.09
2017-05-14T04:49:17.900Z,0.09
2017-05-14T04:50:05.868Z,0.09
2017-05-14T04:50:53.798Z,0.10
2017-05-14T04:51:54.784Z,0.10
2017-05-14T04:52:43.264Z,0.10
2017-05-14T04:53:37.805Z,0.10
2017-05-14T04:54:31.394Z,0.10
2017-05-14T04:55:20.305Z,0.11
2017-05-14T04:56:14.827Z,0.11
2017-05-14T04:57:14.341Z,0.11
2017-05-14T04:58:08.263Z,0.11
2017-05-14T04:59:08.292Z,0.12
2017-05-14T05:00:08.353Z,0.12
2017-05-14T05:01:02.181Z,0.12
2017-05-14T05:01:51.174Z,0.12
2017-05-14T05:02:45.636Z,0.12
2017-05-14T05:03:45.181Z,0.13
2017-05-14T05:04:45.131Z,0.12
2017-05-14T05:05:39.068Z,0.12
2017-05-14T05:06:33.072Z,0.12
2017-05-14T05:07:32.994Z,0.12
2017-05-14T05:08:27.970Z,0.12
2017-05-14T05:09:27.499Z,0.12
2017-05-14T05:10:28.457Z,0.13
2017-05-14T05:11:28.020Z,0.13
2017-05-14T05:12:21.934Z,0.13
2017-05-14T05:13:21.918Z,0.13
2017-05-14T05:14:15.902Z,0.13
2017-05-14T05:15:09.794Z,0.13
2017-05-14T05:16:04.777Z,0.14
2017-05-14T05:17:10.360Z,0.14
2017-05-14T05:18:05.245Z,0.14
2017-05-14T05:19:04.847Z,0.15
2017-05-14T05:20:05.726Z,0.15
2017-05-14T05:20:59.288Z,0.15
2017-05-14T05:21:54.246Z,0.16
2017-05-14T05:22:54.780Z,0.16
2017-05-14T05:23:49.290Z,0.16
2017-05-14T05:24:43.809Z,0.17
2017-05-14T05:25:38.290Z,0.18
2017-05-14T05:26:38.048Z,0.18
2017-05-14T05:27:32.751Z,0.19
2017-05-14T05:28:32.337Z,0.20
2017-05-14T05:29:32.294Z,0.20
2017-05-14T05:30:27.490Z,0.20
2017-05-14T05:31:26.874Z,0.20
2017-05-14T05:32:20.718Z,0.20
2017-05-14T05:33:22.130Z,0.19
2017-05-14T05:34:16.533Z,0.18
2017-05-14T05:35:10.806Z,0.20
2017-05-14T05:36:05.284Z,0.20
2017-05-14T05:37:04.840Z,0.16
2017-05-14T05:37:58.801Z,0.11
2017-05-14T05:38:58.802Z,0.11
2017-05-14T05:39:53.734Z,0.15
2017-05-14T05:40:53.277Z,0.17
2017-05-14T05:41:47.258Z,0.19
2017-05-14T05:42:47.683Z,0.22
2017-05-14T05:43:41.095Z,0.24
2017-05-14T05:44:47.415Z,0.27
2017-05-14T05:45:41.273Z,0.30
2017-05-14T05:46:41.069Z,0.31
2017-05-14T05:47:35.002Z,0.32
2017-05-14T05:48:29.960Z,0.34
2017-05-14T05:49:30.750Z,0.31
2017-05-14T05:50:24.990Z,0.30
2017-05-14T05:51:20.084Z,0.31
2017-05-14T05:52:19.083Z,0.31
2017-05-14T05:53:19.390Z,0.29
2017-05-14T05:54:13.988Z,0.29
2017-05-14T05:55:13.483Z,0.27
2017-05-14T05:56:09.125Z,0.26
2017-05-14T05:57:08.331Z,0.28
2017-05-14T05:58:08.153Z,0.30
2017-05-14T05:59:02.967Z,0.30
2017-05-14T06:00:08.505Z,0.30
2017-05-14T06:01:03.979Z,0.30
2017-05-14T06:02:03.200Z,0.30
2017-05-14T06:03:03.980Z,0.30
2017-05-14T06:03:57.477Z,0.29
2017-05-14T06:04:45.438Z,0.29
2017-05-14T06:05:35.054Z,0.29
2017-05-14T06:06:23.389Z,0.29
2017-05-14T06:07:10.832Z,0.30
2017-05-14T06:07:58.931Z,0.31
2017-05-14T06:08:52.475Z,0.32
2017-05-14T06:09:41.853Z,0.33
2017-05-14T06:10:41.410Z,0.34
2017-05-14T06:11:35.377Z,0.34
2017-05-14T06:12:23.144Z,0.34
2017-05-14T06:13:11.135Z,0.35
2017-05-14T06:14:11.234Z,0.35
2017-05-14T06:15:06.314Z,0.35
2017-05-14T06:16:05.567Z,0.35
2017-05-14T06:16:59.672Z,0.35
2017-05-14T06:17:53.744Z,0.35
2017-05-14T06:18:41.631Z,0.35
2017-05-14T06:19:35.201Z,0.36
2017-05-14T06:20:24.687Z,0.36
2017-05-14T06:21:18.180Z,0.36
2017-05-14T06:22:12.096Z,0.36
2017-05-14T06:23:12.129Z,0.37
2017-05-14T06:24:06.944Z,0.38
2017-05-14T06:25:06.462Z,0.39
2017-05-14T06:26:00.585Z,0.39
2017-05-14T06:26:48.633Z,0.39
2017-05-14T06:27:42.525Z,0.39
2017-05-14T06:28:25.560Z,0.40
2017-05-14T06:29:13.121Z,0.40
2017-05-14T06:30:13.277Z,0.39
2017-05-14T06:31:07.940Z,0.40
2017-05-14T06:32:02.529Z,0.40
2017-05-14T06:32:57.128Z,0.40
2017-05-14T06:33:45.636Z,0.40
2017-05-14T06:34:39.221Z,0.41
2017-05-14T06:35:34.122Z,0.41
2017-05-14T06:36:27.647Z,0.41
2017-05-14T06:37:21.583Z,0.41
2017-05-14T06:38:10.651Z,0.42
2017-05-14T06:38:59.138Z,0.42
2017-05-14T06:39:47.592Z,0.44
2017-05-14T06:40:41.549Z,0.43
2017-05-14T06:41:34.760Z,0.44
2017-05-14T06:42:22.736Z,0.43
2017-05-14T06:43:23.231Z,0.45
2017-05-14T06:44:11.152Z,0.43
2017-05-14T06:44:53.687Z,0.36
2017-05-14T06:45:47.154Z,0.32
2017-05-14T06:46:42.098Z,0.35
2017-05-14T06:47:42.711Z,0.45
2017-05-14T06:48:42.497Z,0.53
2017-05-14T06:49:36.495Z,0.46
2017-05-14T06:50:25.318Z,0.45
2017-05-14T06:51:12.864Z,0.42
2017-05-14T06:52:01.695Z,0.39
2017-05-14T06:52:56.353Z,0.37
2017-05-14T06:53:44.728Z,0.43
2017-05-14T06:54:32.530Z,0.41
2017-05-14T06:55:26.741Z,0.39
2017-05-14T06:56:26.706Z,0.47
2017-05-14T06:57:20.220Z,0.41
2017-05-14T06:58:21.408Z,0.35
2017-05-14T06:59:15.206Z,0.40
2017-05-14T07:00:04.251Z,0.53
2017-05-14T07:01:03.207Z,0.40
2017-05-14T07:01:57.157Z,0.45
2017-05-14T07:02:57.160Z,0.49
2017-05-14T07:03:51.237Z,0.56
2017-05-14T07:04:45.359Z,0.50
2017-05-14T07:05:34.424Z,0.54
2017-05-14T07:06:28.587Z,0.47
2017-05-14T07:07:22.190Z,0.55
2017-05-14T07:08:11.345Z,0.69
2017-05-14T07:09:05.680Z,0.63
2017-05-14T07:09:59.221Z,0.61
2017-05-14T07:10:47.413Z,0.44
2017-05-14T07:11:35.531Z,0.54
2017-05-14T07:12:29.165Z,0.47
2017-05-14T07:13:29.129Z,0.50
2017-05-14T07:14:23.391Z,0.48
2017-05-14T07:15:23.110Z,0.50
2017-05-14T07:16:18.336Z,0.50
2017-05-14T07:17:13.131Z,0.50
2017-05-14T07:18:07.489Z,0.46
2017-05-14T07:18:55.281Z,0.43
2017-05-14T07:19:49.675Z,0.40
2017-05-14T07:20:38.822Z,0.40
2017-05-14T07:21:27.260Z,0.41
2017-05-14T07:22:15.844Z,0.40
2017-05-14T07:23:15.120Z,0.40
2017-05-14T07:24:03.158Z,0.42
2017-05-14T07:24:51.015Z,0.43
2017-05-14T07:25:40.282Z,0.39
2017-05-14T07:26:28.808Z,0.42
2017-05-14T07:27:23.363Z,0.45
2017-05-14T07:28:18.128Z,0.47
2017-05-14T07:29:10.787Z,0.43
2017-05-14T07:29:58.752Z,0.44
2017-05-14T07:30:46.560Z,0.40
2017-05-14T07:31:41.740Z,0.41
2017-05-14T07:32:40.904Z,0.43
2017-05-14T07:33:35.334Z,0.46
2017-05-14T07:34:23.820Z,0.45
2017-05-14T07:35:17.265Z,0.46
2017-05-14T07:36:06.556Z,0.47
2017-05-14T07:37:00.860Z,0.49
2017-05-14T07:37:48.927Z,0.46
2017-05-14T07:38:44.035Z,0.43
2017-05-14T07:39:32.378Z,0.44
2017-05-14T07:40:19.868Z,0.45
2017-05-14T07:41:19.875Z,0.44
2017-05-14T07:42:13.839Z,0.45
2017-05-14T07:42:56.712Z,0.46
2017-05-14T07:43:51.713Z,0.47
2017-05-14T07:44:44.859Z,0.51
2017-05-14T07:45:39.033Z,0.61
2017-05-14T07:46:33.807Z,0.62
2017-05-14T07:47:33.396Z,0.59
2017-05-14T07:48:27.404Z,0.64
2017-05-14T07:49:10.709Z,0.57
2017-05-14T07:50:03.931Z,0.58
2017-05-14T07:50:57.903Z,0.63
2017-05-14T07:51:45.866Z,0.60
2017-05-14T07:52:34.905Z,0.81
2017-05-14T07:53:28.382Z,0.74
2017-05-14T07:54:17.657Z,0.95
2017-05-14T07:55:05.851Z,0.97
2017-05-14T07:56:00.494Z,0.60
2017-05-14T07:56:55.006Z,0.93
2017-05-14T07:57:48.581Z,0.52
2017-05-14T07:58:42.531Z,0.86
2017-05-14T07:59:37.998Z,0.81
2017-05-14T08:00:37.035Z,0.90
2017-05-14T08:01:31.063Z,0.88
2017-05-14T08:02:20.019Z,0.85
2017-05-14T08:03:13.519Z,0.71
2017-05-14T08:04:02.567Z,0.74
2017-05-14T08:04:56.449Z,0.88
2017-05-14T08:05:45.078Z,0.85
2017-05-14T08:06:38.647Z,0.78
2017-05-14T08:07:32.629Z,0.82
2017-05-14T08:08:32.578Z,0.83
2017-05-14T08:09:21.580Z,0.77
2017-05-14T08:10:15.115Z,0.80
2017-05-14T08:11:04.074Z,0.76
2017-05-14T08:11:52.659Z,0.74
2017-05-14T08:12:40.139Z,0.61
2017-05-14T08:13:29.161Z,0.79
2017-05-14T08:14:17.737Z,0.83
2017-05-14T08:15:06.254Z,0.87
2017-05-14T08:16:06.014Z,0.72
2017-05-14T08:16:54.781Z,0.59
2017-05-14T08:17:48.339Z,0.75
2017-05-14T08:18:48.305Z,0.93
2017-05-14T08:19:37.308Z,0.76
2017-05-14T08:20:30.856Z,0.65
2017-05-14T08:21:18.847Z,0.57
2017-05-14T08:22:06.832Z,0.59
2017-05-14T08:23:00.769Z,0.60
2017-05-14T08:23:55.772Z,0.58
2017-05-14T08:24:49.294Z,0.61
2017-05-14T08:25:43.270Z,0.60
2017-05-14T08:26:31.534Z,0.66
2017-05-14T08:27:31.218Z,0.46
2017-05-14T08:28:25.213Z,0.45
2017-05-14T08:29:19.191Z,0.47
2017-05-14T08:30:14.158Z,0.63
2017-05-14T08:31:08.756Z,0.83
2017-05-14T08:32:08.289Z,0.67
2017-05-14T08:32:57.275Z,0.76
2017-05-14T08:33:50.768Z,0.98
2017-05-14T08:34:39.811Z,0.95
2017-05-14T08:35:28.333Z,0.64
2017-05-14T08:36:16.857Z,0.59
2017-05-14T08:37:16.417Z,0.59
2017-05-14T08:38:05.415Z,0.48
2017-05-14T08:38:58.919Z,0.58
2017-05-14T08:39:46.921Z,0.62
2017-05-14T08:40:41.968Z,0.71
2017-05-14T08:41:35.105Z,0.54
2017-05-14T08:42:30.171Z,0.61
2017-05-14T08:43:29.774Z,0.55
2017-05-14T08:44:23.809Z,0.49
2017-05-14T08:45:17.976Z,0.57
2017-05-14T08:46:11.951Z,0.53
2017-05-14T08:47:00.909Z,0.66
2017-05-14T08:47:54.754Z,0.48
2017-05-14T08:48:54.394Z,0.51
2017-05-14T08:49:48.395Z,0.49
2017-05-14T08:50:37.340Z,0.47
2017-05-14T08:51:31.914Z,0.42
2017-05-14T08:52:19.477Z,0.43
2017-05-14T08:53:20.504Z,0.46
2017-05-14T08:54:19.954Z,0.44
2017-05-14T08:55:08.958Z,0.70
2017-05-14T08:56:03.431Z,0.61
2017-05-14T08:56:57.031Z,0.87
2017-05-14T08:57:50.967Z,0.87
2017-05-14T08:58:39.954Z,0.86
2017-05-14T08:59:28.562Z,0.83
2017-05-14T09:00:22.115Z,0.83
2017-05-14T09:01:22.051Z,0.84
2017-05-14T09:02:17.103Z,0.84
2017-05-14T09:03:11.665Z,0.83
2017-05-14T09:04:05.156Z,0.82
2017-05-14T09:04:59.107Z,0.83
2017-05-14T09:06:00.063Z,0.83
2017-05-14T09:06:53.625Z,0.83
2017-05-14T09:07:42.627Z,0.84
2017-05-14T09:08:36.100Z,0.83
2017-05-14T09:09:36.170Z,0.86
2017-05-14T09:10:19.159Z,0.86
2017-05-14T09:11:12.704Z,0.87
2017-05-14T09:12:06.679Z,0.87
2017-05-14T09:12:54.603Z,0.88
2017-05-14T09:13:48.579Z,0.87
2017-05-14T09:14:42.550Z,0.84
2017-05-14T09:15:31.625Z,0.46
2017-05-14T09:16:20.028Z,0.36
2017-05-14T09:17:14.276Z,0.45
2017-05-14T09:18:03.220Z,0.76
2017-05-14T09:18:57.710Z,0.81
2017-05-14T09:19:51.488Z,0.82
2017-05-14T09:20:46.057Z,0.80
2017-05-14T09:21:39.872Z,0.82
2017-05-14T09:22:34.265Z,0.83
2017-05-14T09:23:28.376Z,0.32
2017-05-14T09:24:17.280Z,0.74
2017-05-14T09:25:16.589Z,0.33
2017-05-14T09:26:04.791Z,0.84
2017-05-14T09:27:04.832Z,0.32
2017-05-14T09:27:59.643Z,0.84
2017-05-14T09:28:54.372Z,0.84
2017-05-14T09:29:41.951Z,0.83
2017-05-14T09:30:42.014Z,0.85
2017-05-14T09:31:29.727Z,0.87
2017-05-14T09:32:18.878Z,0.88
2017-05-14T09:33:12.371Z,0.27
2017-05-14T09:34:01.415Z,0.90
2017-05-14T09:35:00.981Z,0.87
2017-05-14T09:35:54.963Z,0.88
2017-05-14T09:36:48.802Z,0.87
2017-05-14T09:37:36.844Z,0.90
2017-05-14T09:38:24.795Z,0.92
2017-05-14T09:39:12.897Z,0.92
2017-05-14T09:40:06.561Z,0.94
2017-05-14T09:41:06.714Z,0.93
2017-05-14T09:41:54.543Z,0.94
2017-05-14T09:42:43.570Z,0.94
2017-05-14T09:43:38.303Z,0.92
2017-05-14T09:44:31.903Z,0.76
2017-05-14T09:45:31.855Z,0.84
2017-05-14T09:46:26.840Z,0.80
2017-05-14T09:47:21.399Z,0.83
2017-05-14T09:48:14.984Z,0.83
2017-05-14T09:49:03.834Z,0.89
2017-05-14T09:50:03.504Z,0.34
2017-05-14T09:50:57.508Z,0.89
2017-05-14T09:51:57.521Z,0.71
2017-05-14T09:52:46.401Z,0.80
2017-05-14T09:53:45.980Z,1.00
2017-05-14T09:54:39.965Z,1.02
2017-05-14T09:55:34.573Z,0.88
2017-05-14T09:56:29.482Z,0.40
2017-05-14T09:57:23.000Z,0.36
2017-05-14T09:58:11.820Z,0.36
2017-05-14T09:59:00.577Z,0.97
2017-05-14T09:59:54.139Z,1.01
2017-05-14T10:00:37.111Z,1.01
2017-05-14T10:01:42.643Z,0.73
2017-05-14T10:02:37.628Z,0.43
2017-05-14T10:03:26.222Z,0.43
2017-05-14T10:04:19.760Z,0.99
2017-05-14T10:05:08.709Z,1.15
2017-05-14T10:06:02.285Z,0.47
2017-05-14T10:07:02.254Z,0.62
2017-05-14T10:07:51.335Z,1.13
2017-05-14T10:08:45.759Z,0.74
2017-05-14T10:09:39.310Z,0.39
2017-05-14T10:10:33.357Z,0.36
2017-05-14T10:11:21.272Z,0.35
2017-05-14T10:12:16.252Z,0.34
2017-05-14T10:13:15.812Z,0.32
2017-05-14T10:14:10.819Z,0.30
2017-05-14T10:15:10.302Z,0.29
2017-05-14T10:16:04.237Z,0.29
2017-05-14T10:16:53.344Z,0.27
2017-05-14T10:17:46.741Z,0.26
2017-05-14T10:18:40.777Z,0.25
2017-05-14T10:19:29.650Z,0.23
2017-05-14T10:20:24.330Z,0.22
2017-05-14T10:21:23.557Z,0.20
2017-05-14T10:22:11.766Z,0.19
2017-05-14T10:23:00.783Z,0.19
2017-05-14T10:23:49.470Z,0.20
2017-05-14T10:24:37.776Z,0.21
2017-05-14T10:25:32.415Z,0.22
2017-05-14T10:26:26.949Z,0.24
2017-05-14T10:27:21.465Z,0.26
2017-05-14T10:28:14.743Z,0.31
2017-05-14T10:29:14.597Z,0.38
2017-05-14T10:30:08.858Z,0.86
2017-05-14T10:30:56.913Z,0.83
2017-05-14T10:31:44.760Z,0.28
2017-05-14T10:32:39.803Z,0.29
2017-05-14T10:33:33.943Z,0.53
2017-05-14T10:34:28.853Z,0.43
2017-05-14T10:35:22.493Z,1.02
2017-05-14T10:36:16.621Z,0.46
2017-05-14T10:37:04.472Z,0.62
2017-05-14T10:38:04.283Z,0.42
2017-05-14T10:38:52.073Z,0.65
2017-05-14T10:39:41.453Z,0.32
2017-05-14T10:40:34.710Z,0.34
2017-05-14T10:41:29.757Z,0.33
2017-05-14T10:42:18.093Z,0.36
2017-05-14T10:43:06.000Z,0.43
2017-05-14T10:44:00.046Z,0.72
2017-05-14T10:44:48.877Z,0.99
2017-05-14T10:45:47.993Z,0.41
2017-05-14T10:46:42.092Z,0.45
2017-05-14T10:47:35.990Z,0.44
2017-05-14T10:48:30.901Z,1.00
2017-05-14T10:49:25.746Z,0.42
2017-05-14T10:50:20.090Z,0.63
2017-05-14T10:51:19.903Z,0.78
2017-05-14T10:52:13.518Z,0.66
2017-05-14T10:53:07.493Z,1.01
2017-05-14T10:53:57.035Z,0.36
2017-05-14T10:54:56.181Z,0.36
2017-05-14T10:55:45.742Z,0.39
2017-05-14T10:56:33.109Z,0.40
2017-05-14T10:57:22.020Z,0.52
2017-05-14T10:58:16.609Z,0.52
2017-05-14T10:59:11.052Z,0.92
2017-05-14T11:00:04.616Z,0.42
2017-05-14T11:00:58.629Z,0.40
2017-05-14T11:01:53.614Z,0.36
2017-05-14T11:02:47.137Z,0.35
2017-05-14T11:03:36.154Z,0.34
2017-05-14T11:04:35.697Z,0.34
2017-05-14T11:05:24.661Z,0.35
2017-05-14T11:06:13.132Z,0.38
2017-05-14T11:07:06.745Z,0.50
2017-05-14T11:07:54.705Z,1.07
2017-05-14T11:08:48.667Z,0.45
2017-05-14T11:09:42.613Z,0.46
2017-05-14T11:10:31.618Z,0.45
2017-05-14T11:11:25.220Z,0.40
2017-05-14T11:12:13.133Z,0.37
2017-05-14T11:13:07.077Z,0.39
2017-05-14T11:14:01.069Z,0.37
2017-05-14T11:14:50.100Z,0.40
2017-05-14T11:15:44.690Z,0.42
2017-05-14T11:16:38.187Z,0.79
2017-05-14T11:17:32.116Z,1.04
2017-05-14T11:18:21.066Z,1.06
2017-05-14T11:19:14.701Z,1.08
2017-05-14T11:20:02.677Z,1.02
2017-05-14T11:20:50.708Z,1.00
2017-05-14T11:21:39.643Z,0.38
2017-05-14T11:22:39.225Z,0.73
2017-05-14T11:23:33.181Z,0.59
2017-05-14T11:24:27.011Z,0.62
2017-05-14T11:25:16.066Z,0.70
2017-05-14T11:26:04.697Z,0.66
2017-05-14T11:26:58.344Z,0.70
2017-05-14T11:27:41.201Z,0.40
2017-05-14T11:28:34.674Z,0.70
2017-05-14T11:29:28.510Z,0.74
2017-05-14T11:30:22.675Z,0.69
2017-05-14T11:31:22.678Z,0.43
2017-05-14T11:32:10.678Z,1.06
2017-05-14T11:33:04.515Z,1.07
2017-05-14T11:33:58.646Z,0.99
2017-05-14T11:34:46.600Z,0.99
2017-05-14T11:35:46.644Z,0.84
2017-05-14T11:36:40.591Z,0.85
2017-05-14T11:37:40.585Z,0.93
2017-05-14T11:38:23.493Z,0.95
2017-05-14T11:39:18.025Z,0.97
2017-05-14T11:40:12.640Z,0.98
2017-05-14T11:41:01.178Z,0.97
2017-05-14T11:41:49.716Z,0.84
2017-05-14T11:42:43.230Z,0.91
2017-05-14T11:43:31.271Z,0.83
2017-05-14T11:44:14.273Z,0.83
2017-05-14T11:45:07.741Z,0.85
2017-05-14T11:46:01.725Z,0.94
2017-05-14T11:46:50.773Z,0.97
2017-05-14T11:47:38.268Z,0.95
2017-05-14T11:48:26.261Z,0.86
2017-05-14T11:49:26.246Z,0.84
2017-05-14T11:50:21.188Z,0.79
2017-05-14T11:51:14.750Z,0.35
2017-05-14T11:52:03.780Z,0.34
2017-05-14T11:52:52.316Z,0.33
2017-05-14T11:53:46.901Z,0.31
2017-05-14T11:54:40.408Z,0.30
2017-05-14T11:55:23.407Z,0.28
2017-05-14T11:56:10.971Z,0.27
2017-05-14T11:57:10.894Z,0.25
2017-05-14T11:58:04.896Z,0.24
2017-05-14T11:58:59.750Z,0.22
2017-05-14T11:59:54.231Z,0.21